Time;durP1;ratioP1;P1;durP2;ratioP2;P2;SDS_P1;SDS_P2;PMS_P1;PMS_P2;Temp;Humidity;BMP_temperature;BMP_pressure;BME280_temperature;BME280_humidity;BME280_pressure;Samples;Min_cycle;Max_cycle;Signal;HPM_P1;HPM_P2
2022/01/13 00:00:28;;;;;;;21.00;8.93;;;;;;;5.76;61.73;103677.56;5045026;28;20179;-75
2022/01/13 00:02:53;;;;;;;18.50;8.45;;;;;;;5.67;62.53;103670.31;5044806;28;20120;-75
2022/01/13 00:05:25;;;;;;;19.10;8.88;;;;;;;5.76;61.65;103668.13;5041772;28;20061;-75
2022/01/13 00:07:55;;;;;;;17.25;8.23;;;;;;;5.69;62.05;103672.94;5025515;28;20040;-75
2022/01/13 00:10:21;;;;;;;17.65;7.95;;;;;;;5.65;61.94;103673.63;5040492;28;20116;-75
2022/01/13 00:12:47;;;;;;;16.05;8.20;;;;;;;5.70;61.23;103670.44;5029093;28;20040;-75
2022/01/13 00:22:51;;;;;;;17.25;7.60;;;;;;;5.65;61.61;103653.00;5053864;28;20048;-75
2022/01/13 00:25:18;;;;;;;17.38;8.15;;;;;;;5.59;61.99;103660.47;5045244;28;20489;-75
2022/01/13 00:27:50;;;;;;;16.92;7.75;;;;;;;5.78;61.57;103652.72;5048439;28;20097;-75
2022/01/13 00:30:18;;;;;;;15.75;8.00;;;;;;;5.69;60.96;103650.59;5042210;28;20120;-75
2022/01/13 00:32:45;;;;;;;15.18;8.43;;;;;;;5.64;61.60;103659.84;5045707;28;20040;-75
2022/01/13 00:35:11;;;;;;;18.38;8.32;;;;;;;5.76;60.44;103657.81;5049818;28;20090;-75
2022/01/13 00:37:37;;;;;;;14.75;7.72;;;;;;;5.72;60.85;103662.75;5043788;28;20148;-75
2022/01/13 00:40:05;;;;;;;18.95;8.48;;;;;;;5.87;59.90;103661.75;5047692;28;20045;-75
2022/01/13 00:42:30;;;;;;;17.55;8.30;;;;;;;5.66;60.92;103667.63;5028900;28;20518;-75
2022/01/13 00:44:56;;;;;;;17.95;8.93;;;;;;;5.81;61.80;103676.06;5051301;28;20036;-75
2022/01/13 00:47:21;;;;;;;19.67;9.30;;;;;;;5.75;61.24;103678.38;5045129;28;20085;-75
2022/01/13 00:49:47;;;;;;;21.55;9.85;;;;;;;5.62;61.69;103678.66;5048106;28;20033;-75
2022/01/13 00:52:12;;;;;;;27.38;10.20;;;;;;;5.76;61.04;103681.03;5040990;28;20413;-75
2022/01/13 00:54:39;;;;;;;24.73;10.48;;;;;;;5.70;60.41;103677.28;5044883;28;20041;-75
2022/01/13 00:57:04;;;;;;;23.48;10.25;;;;;;;5.73;60.74;103674.84;5044092;28;20057;-75
2022/01/13 00:59:30;;;;;;;17.30;8.45;;;;;;;5.73;59.31;103674.84;5046680;28;20080;-75
2022/01/13 01:01:55;;;;;;;18.88;8.75;;;;;;;5.78;60.34;103675.94;5043937;28;20039;-75
2022/01/13 01:04:21;;;;;;;15.73;8.27;;;;;;;5.70;58.86;103669.56;5036989;28;20032;-75
2022/01/13 01:06:47;;;;;;;14.60;6.80;;;;;;;5.55;59.82;103674.00;5043578;28;20398;-75
2022/01/13 01:09:16;;;;;;;16.45;7.53;;;;;;;5.65;60.51;103676.22;5051560;28;20032;-75
2022/01/13 01:11:46;;;;;;;16.10;7.40;;;;;;;5.63;59.85;103672.66;5046822;28;20067;-75
2022/01/13 01:14:13;;;;;;;18.23;6.88;;;;;;;5.72;60.01;103680.81;5044873;28;20258;-75
2022/01/13 01:16:39;;;;;;;17.15;7.80;;;;;;;5.67;60.35;103680.63;5046305;28;20397;-75
2022/01/13 01:19:07;;;;;;;14.05;6.75;;;;;;;5.81;59.75;103676.94;5045804;28;20040;-75
2022/01/13 01:24:58;;;;;;;16.70;7.22;;;;;;;5.77;59.00;103685.34;5042961;28;20043;-75
2022/01/13 01:26:50;;;;;;;14.55;6.68;;;;;;;5.68;59.80;103691.81;5037849;28;20098;-75
2022/01/13 01:31:51;;;;;;;14.13;7.07;;;;;;;5.64;59.96;103695.94;5049525;28;22060;-75
2022/01/13 01:36:54;;;;;;;16.05;6.85;;;;;;;5.82;58.54;103691.63;5047867;28;20033;-75
2022/01/13 01:39:19;;;;;;;16.60;7.03;;;;;;;5.63;59.70;103694.19;5047644;28;20083;-75
2022/01/13 01:41:48;;;;;;;14.30;6.57;;;;;;;5.80;59.78;103694.97;5029297;28;20040;-75
2022/01/13 01:44:27;;;;;;;13.65;7.30;;;;;;;5.63;60.74;103695.88;5046070;28;20855;-75
2022/01/13 01:46:53;;;;;;;18.02;7.10;;;;;;;5.75;59.41;103699.00;5048405;28;20052;-75
2022/01/13 01:49:22;;;;;;;18.67;7.72;;;;;;;5.56;61.15;103704.16;5049982;28;20034;-75
2022/01/13 01:51:56;;;;;;;14.25;7.80;;;;;;;5.75;60.23;103710.22;5049198;28;20041;-75
2022/01/13 01:54:22;;;;;;;;;;;;;;;5.65;60.09;103700.31;5049263;28;20039;-75
2022/01/13 01:56:48;;;;;;;17.02;6.63;;;;;;;5.55;60.40;103715.25;5047903;28;20391;-75
2022/01/13 01:59:18;;;;;;;12.50;6.78;;;;;;;5.60;61.26;103718.94;5047009;28;20044;-75
2022/01/13 02:01:48;;;;;;;12.27;6.43;;;;;;;5.57;60.40;103709.34;5048034;28;20109;-75
2022/01/13 02:04:14;;;;;;;14.88;7.40;;;;;;;5.66;60.03;103702.06;5045145;28;20440;-75
2022/01/13 02:06:41;;;;;;;19.85;8.95;;;;;;;5.62;60.50;103697.59;5044127;28;20049;-75
2022/01/13 02:09:09;;;;;;;16.38;7.97;;;;;;;5.64;60.32;103701.09;5048977;28;20035;-75
2022/01/13 02:11:42;;;;;;;16.08;8.45;;;;;;;5.82;60.19;103698.47;5035731;28;20068;-75
2022/01/13 02:14:22;;;;;;;20.05;8.63;;;;;;;5.54;61.08;103708.31;5036624;28;20108;-75
2022/01/13 02:16:51;;;;;;;17.05;8.85;;;;;;;5.43;61.86;103713.00;5004169;28;20454;-75
2022/01/13 02:19:17;;;;;;;15.73;7.90;;;;;;;5.53;60.68;103709.16;5040111;28;20035;-75
2022/01/13 02:21:43;;;;;;;17.42;7.57;;;;;;;5.50;61.50;103709.91;5052591;28;20044;-75
2022/01/13 02:24:10;;;;;;;14.50;7.25;;;;;;;5.48;60.77;103712.41;5047520;28;20116;-75
2022/01/13 02:26:36;;;;;;;14.00;7.78;;;;;;;5.48;60.84;103714.09;5044665;28;20052;-75
2022/01/13 02:29:02;;;;;;;18.83;7.45;;;;;;;5.51;60.28;103703.91;5050077;28;20037;-75
2022/01/13 02:31:27;;;;;;;14.90;6.85;;;;;;;5.65;60.04;103702.88;5040312;28;20099;-75
2022/01/13 02:33:54;;;;;;;16.60;7.78;;;;;;;5.51;61.66;103696.19;5047220;28;20071;-75
2022/01/13 02:36:22;;;;;;;16.02;8.57;;;;;;;5.45;61.79;103699.38;5046303;28;20041;-75
2022/01/13 02:38:53;;;;;;;18.05;9.02;;;;;;;5.60;60.60;103695.72;5033284;28;20464;-75
2022/01/13 02:41:22;;;;;;;16.27;8.23;;;;;;;5.51;60.49;103695.28;5047554;28;20692;-75
2022/01/13 02:43:49;;;;;;;17.02;8.88;;;;;;;5.57;59.56;103690.44;5018411;28;20055;-75
2022/01/13 02:49:13;;;;;;;19.08;8.52;;;;;;;5.77;59.55;103677.63;5051277;28;20049;-75
2022/01/13 02:51:51;;;;;;;20.00;9.70;;;;;;;5.51;59.65;103672.97;5047812;28;20033;-75
2022/01/13 02:54:17;;;;;;;16.05;8.52;;;;;;;5.69;59.25;103668.66;5043917;28;20037;-75
2022/01/13 02:56:44;;;;;;;22.33;10.80;;;;;;;5.53;60.02;103676.53;5048066;28;20059;-75
2022/01/13 02:59:10;;;;;;;27.67;9.73;;;;;;;5.75;59.57;103680.94;5047875;28;20091;-75
2022/01/13 03:01:36;;;;;;;20.95;9.63;;;;;;;5.62;59.96;103676.97;5047927;28;20076;-75
2022/01/13 03:04:06;;;;;;;20.92;9.70;;;;;;;5.48;60.57;103678.88;5041372;28;20147;-75
2022/01/13 03:06:35;;;;;;;23.42;9.90;;;;;;;5.61;60.58;103680.34;5053683;28;20056;-75
2022/01/13 03:09:04;;;;;;;22.50;10.80;;;;;;;5.37;61.10;103674.03;5050606;28;20087;-75
2022/01/13 03:11:38;;;;;;;25.05;10.93;;;;;;;5.45;60.15;103673.59;5030330;28;20129;-75
2022/01/13 03:14:13;;;;;;;24.25;9.65;;;;;;;5.49;59.59;103674.63;5044332;28;20032;-75
2022/01/13 03:16:40;;;;;;;20.52;9.73;;;;;;;5.40;60.59;103675.06;5057336;28;20668;-75
2022/01/13 03:19:06;;;;;;;25.70;11.30;;;;;;;5.39;60.71;103672.41;5042837;28;20033;-75
2022/01/13 03:21:31;;;;;;;24.92;10.48;;;;;;;5.51;60.52;103672.09;5050507;28;20083;-75
2022/01/13 03:23:57;;;;;;;27.02;10.18;;;;;;;5.57;60.05;103668.09;5046455;28;20088;-75
2022/01/13 03:26:24;;;;;;;24.15;10.23;;;;;;;5.41;60.36;103663.06;5049468;28;20024;-75
2022/01/13 03:29:14;;;;;;;26.80;10.95;;;;;;;5.33;61.09;103664.41;5047335;28;20023;-75
2022/01/13 03:31:39;;;;;;;26.50;11.10;;;;;;;5.48;61.47;103663.41;5035243;28;20502;-75
2022/01/13 03:34:05;;;;;;;26.98;11.82;;;;;;;5.30;61.53;103661.66;5048562;28;20071;-75
2022/01/13 03:36:32;;;;;;;23.75;10.93;;;;;;;5.43;61.49;103662.34;5051013;28;20091;-75
2022/01/13 03:38:57;;;;;;;25.02;12.07;;;;;;;5.39;60.69;103660.41;5042951;28;20036;-75
2022/01/13 03:41:23;;;;;;;27.27;11.93;;;;;;;5.56;60.00;103655.16;5046108;28;20057;-76
2022/01/13 03:43:54;;;;;;;27.23;12.18;;;;;;;5.36;61.79;103668.00;5047417;28;20025;-75
2022/01/13 03:46:20;;;;;;;25.05;11.07;;;;;;;5.31;61.64;103661.75;5046957;28;20076;-75
2022/01/13 03:48:46;;;;;;;24.50;11.55;;;;;;;5.48;61.49;103658.25;5044761;28;20047;-75
2022/01/13 03:51:12;;;;;;;23.80;11.63;;;;;;;5.24;61.37;103669.13;5028233;28;20133;-75
2022/01/13 03:54:05;;;;;;;23.98;12.40;;;;;;;5.35;60.67;103666.25;5044762;28;20062;-75
2022/01/13 03:56:43;;;;;;;27.20;12.05;;;;;;;5.39;61.25;103655.25;5043562;28;20025;-75
2022/01/13 03:59:08;;;;;;;24.70;10.55;;;;;;;5.44;61.08;103661.50;5041529;28;20025;-75
2022/01/13 04:02:08;;;;;;;23.25;11.30;;;;;;;5.52;61.21;103653.25;5048098;28;20044;-75
2022/01/13 04:04:39;;;;;;;23.92;10.68;;;;;;;5.34;60.59;103650.72;5040546;28;20040;-75
2022/01/13 04:07:12;;;;;;;25.10;12.05;;;;;;;5.38;61.30;103650.94;5047066;28;20100;-75
2022/01/13 04:09:40;;;;;;;26.70;10.27;;;;;;;5.36;60.94;103651.66;5043159;28;20029;-75
2022/01/13 04:12:08;;;;;;;25.15;11.63;;;;;;;5.33;60.45;103648.94;5035099;28;20087;-75
2022/01/13 04:14:45;;;;;;;26.90;11.27;;;;;;;5.31;60.49;103647.97;5049408;28;20446;-75
2022/01/13 04:17:16;;;;;;;23.33;9.95;;;;;;;5.30;61.03;103657.41;5038734;28;20021;-75
2022/01/13 04:19:42;;;;;;;25.63;10.25;;;;;;;5.39;60.14;103657.84;5042732;28;20136;-75
2022/01/13 04:22:10;;;;;;;23.42;10.65;;;;;;;5.30;60.52;103659.97;5030524;28;20060;-75
2022/01/13 04:24:37;;;;;;;27.27;10.95;;;;;;;5.24;61.06;103658.81;5052953;28;20475;-75
2022/01/13 04:27:03;;;;;;;24.67;11.38;;;;;;;5.29;61.18;103668.56;5037481;28;20151;-75
2022/01/13 04:29:37;;;;;;;25.30;10.55;;;;;;;5.27;60.83;103661.53;5050295;28;20047;-75
2022/01/13 04:32:04;;;;;;;23.48;10.45;;;;;;;5.21;60.54;103661.25;5027145;28;20557;-75
2022/01/13 04:34:30;;;;;;;25.33;10.70;;;;;;;5.20;60.87;103659.50;5039203;28;20741;-75
2022/01/13 04:36:58;;;;;;;23.63;11.15;;;;;;;5.15;60.94;103663.56;5046481;28;20034;-75
2022/01/13 04:39:24;;;;;;;22.48;10.32;;;;;;;5.26;60.98;103665.81;5028658;28;20039;-75
2022/01/13 04:41:49;;;;;;;24.23;10.52;;;;;;;5.16;61.28;103661.03;5012069;28;20041;-75
2022/01/13 04:44:19;;;;;;;25.20;10.63;;;;;;;5.14;61.27;103659.22;5032603;28;20528;-75
2022/01/13 04:46:50;;;;;;;21.60;11.07;;;;;;;5.17;60.62;103655.09;5023260;28;20123;-75
2022/01/13 04:49:18;;;;;;;28.60;12.10;;;;;;;5.30;61.19;103659.97;5037494;28;20033;-75
2022/01/13 04:51:45;;;;;;;24.65;11.38;;;;;;;5.22;60.92;103652.72;5042356;28;20040;-75
2022/01/13 04:54:12;;;;;;;24.38;11.43;;;;;;;5.10;61.88;103655.59;5029815;28;20033;-75
2022/01/13 04:59:07;;;;;;;22.63;10.82;;;;;;;5.09;61.15;103656.41;5044016;28;20040;-75
2022/01/13 05:01:33;;;;;;;26.52;11.63;;;;;;;5.00;61.12;103653.38;5028137;28;20048;-75
2022/01/13 05:03:58;;;;;;;28.20;12.98;;;;;;;5.02;61.68;103654.34;5042570;28;20084;-75
2022/01/13 05:06:24;;;;;;;26.83;11.73;;;;;;;5.08;61.30;103646.03;5044322;28;20094;-75
2022/01/13 05:08:50;;;;;;;29.05;11.70;;;;;;;5.17;60.43;103643.91;5043097;28;20404;-75
2022/01/13 05:11:17;;;;;;;25.63;11.20;;;;;;;5.19;60.72;103639.69;5044920;28;20482;-75
2022/01/13 05:13:44;;;;;;;29.63;11.50;;;;;;;5.11;60.82;103635.88;5040650;28;20033;-75
2022/01/13 05:16:19;;;;;;;22.33;11.00;;;;;;;5.10;60.57;103653.03;5051371;28;20079;-75
2022/01/13 05:19:33;;;;;;;25.80;11.10;;;;;;;5.10;60.65;103647.88;5037011;28;20108;-75
2022/01/13 05:24:17;;;;;;;31.85;12.38;;;;;;;5.10;60.65;103650.44;5024641;28;20053;-75
2022/01/13 05:26:43;;;;;;;28.25;10.95;;;;;;;4.96;60.89;103653.19;5041653;28;20036;-75
2022/01/13 05:29:09;;;;;;;25.60;10.68;;;;;;;4.98;61.63;103646.41;5045211;28;20025;-75
2022/01/13 05:31:35;;;;;;;23.17;11.23;;;;;;;5.06;60.95;103645.09;5045612;28;20036;-75
2022/01/13 05:34:00;;;;;;;22.45;10.60;;;;;;;4.93;60.94;103650.47;5027436;28;20079;-75
2022/01/13 05:36:26;;;;;;;26.17;11.88;;;;;;;4.94;61.01;103657.38;5050614;28;20050;-75
2022/01/13 05:38:51;;;;;;;27.08;11.35;;;;;;;4.91;61.15;103656.41;5027546;28;20044;-75
2022/01/13 05:41:17;;;;;;;26.70;11.00;;;;;;;5.08;60.96;103652.06;5023329;28;20033;-75
2022/01/13 05:43:42;;;;;;;28.20;11.50;;;;;;;4.81;61.68;103650.75;5043517;28;20032;-75
2022/01/13 05:46:08;;;;;;;25.90;12.05;;;;;;;4.84;61.66;103654.38;5035732;28;20075;-75
2022/01/13 05:48:33;;;;;;;26.08;10.90;;;;;;;4.87;61.64;103654.50;5038169;28;20063;-75
2022/01/13 05:51:00;;;;;;;23.65;10.75;;;;;;;4.95;60.97;103644.56;5043315;28;20635;-74
2022/01/13 05:53:25;;;;;;;27.33;12.23;;;;;;;4.82;60.89;103643.09;5041886;28;20037;-75
2022/01/13 05:55:51;;;;;;;24.15;11.40;;;;;;;5.02;60.49;103644.06;5025948;28;20041;-75
2022/01/13 05:58:16;;;;;;;26.20;11.93;;;;;;;5.18;59.33;103645.63;5044438;28;20033;-75
2022/01/13 06:00:42;;;;;;;25.50;11.73;;;;;;;5.02;60.20;103638.00;5027712;28;20402;-75
2022/01/13 06:03:09;;;;;;;27.48;11.50;;;;;;;4.84;61.30;103641.50;5041991;28;20045;-75
2022/01/13 06:05:35;;;;;;;30.52;11.85;;;;;;;4.75;61.74;103646.19;5040187;28;20394;-75
2022/01/13 06:08:00;;;;;;;27.35;11.95;;;;;;;5.15;59.95;103646.38;5029319;28;20087;-75
2022/01/13 06:10:26;;;;;;;27.73;12.32;;;;;;;5.10;59.76;103632.41;5046074;28;20524;-75
2022/01/13 06:12:52;;;;;;;26.88;12.23;;;;;;;4.96;61.12;103638.63;5050567;28;20032;-75
2022/01/13 06:15:20;;;;;;;26.75;12.35;;;;;;;5.09;60.93;103633.22;5047721;28;20056;-75
2022/01/13 06:17:47;;;;;;;24.15;12.02;;;;;;;5.05;59.85;103625.28;5045780;28;20025;-75
2022/01/13 06:20:14;;;;;;;32.00;12.55;;;;;;;4.84;61.04;103626.03;5042236;28;20055;-75
2022/01/13 06:22:41;;;;;;;24.85;11.85;;;;;;;4.85;61.62;103625.19;5029533;28;20029;-75
2022/01/13 06:25:08;;;;;;;28.50;11.82;;;;;;;4.99;60.97;103627.56;5044989;28;20609;-75
2022/01/13 06:27:34;;;;;;;29.95;12.65;;;;;;;4.93;61.30;103625.59;5041243;28;20080;-78
2022/01/13 06:30:01;;;;;;;26.38;11.73;;;;;;;5.06;60.73;103627.06;5041778;28;20033;-78
2022/01/13 06:32:27;;;;;;;25.23;11.00;;;;;;;4.91;61.27;103628.06;5041887;28;20123;-79
2022/01/13 06:34:53;;;;;;;24.45;11.25;;;;;;;5.02;60.90;103626.03;5043518;28;20439;-79
2022/01/13 06:37:19;;;;;;;26.42;11.80;;;;;;;5.06;60.31;103637.38;5044008;28;20033;-78
2022/01/13 06:39:45;;;;;;;24.52;11.45;;;;;;;4.95;61.26;103646.25;5044026;28;20068;-78
2022/01/13 06:42:12;;;;;;;24.23;10.95;;;;;;;5.02;60.57;103638.91;5022371;28;20045;-79
2022/01/13 06:44:38;;;;;;;25.55;11.13;;;;;;;4.97;60.89;103652.38;5047201;28;20030;-78
2022/01/13 06:47:04;;;;;;;25.58;12.05;;;;;;;5.09;60.02;103651.25;5050303;28;20040;-78
2022/01/13 06:49:29;;;;;;;27.23;11.10;;;;;;;4.87;60.87;103646.78;5022890;28;20383;-79
2022/01/13 06:51:55;;;;;;;26.13;10.88;;;;;;;4.91;60.55;103645.25;5048575;28;20564;-80
2022/01/13 06:54:21;;;;;;;24.58;10.30;;;;;;;5.04;59.69;103641.53;5039217;28;20036;-79
2022/01/13 06:56:47;;;;;;;21.88;10.60;;;;;;;4.99;59.33;103643.03;5050014;28;20028;-79
2022/01/13 06:59:13;;;;;;;23.77;10.10;;;;;;;5.05;59.06;103640.75;5044049;28;20486;-79
2022/01/13 07:01:40;;;;;;;17.77;9.98;;;;;;;5.14;59.20;103647.22;5050946;28;20433;-78
2022/01/13 07:04:09;;;;;;;23.00;9.75;;;;;;;5.14;60.13;103656.63;5043692;28;20037;-79
2022/01/13 07:06:35;;;;;;;22.75;10.50;;;;;;;5.06;59.69;103660.53;5048145;28;20047;-79
2022/01/13 07:09:03;;;;;;;25.05;10.38;;;;;;;5.05;59.97;103661.34;5029466;28;20481;-79
2022/01/13 07:11:28;;;;;;;28.40;10.00;;;;;;;5.15;59.70;103655.84;5030461;28;20119;-79
2022/01/13 07:13:53;;;;;;;26.92;11.75;;;;;;;5.21;59.38;103654.41;5044643;28;20124;-79
2022/01/13 07:16:20;;;;;;;20.48;10.95;;;;;;;5.14;59.65;103652.38;5041572;28;20063;-79
2022/01/13 07:18:46;;;;;;;27.95;11.57;;;;;;;4.91;59.59;103660.69;5034698;28;20053;-79
2022/01/13 07:21:15;;;;;;;25.27;11.98;;;;;;;4.90;60.63;103662.38;5034300;28;20045;-79
2022/01/13 07:23:41;;;;;;;24.98;11.73;;;;;;;4.89;60.48;103668.34;5029024;28;20039;-79
2022/01/13 07:26:06;;;;;;;28.77;13.70;;;;;;;4.88;60.22;103668.28;5045250;28;20017;-79
2022/01/13 07:28:33;;;;;;;26.15;12.27;;;;;;;5.13;59.47;103670.31;5036797;28;20077;-79
2022/01/13 07:30:58;;;;;;;26.30;11.27;;;;;;;5.09;59.27;103679.59;5046757;28;20067;-79
2022/01/13 07:33:24;;;;;;;27.73;11.00;;;;;;;4.84;60.41;103682.69;5034450;28;20049;-79
2022/01/13 07:35:50;;;;;;;23.42;11.13;;;;;;;5.10;59.52;103683.94;5038726;28;20103;-78
2022/01/13 07:38:16;;;;;;;25.48;10.65;;;;;;;5.02;59.91;103686.97;5045935;28;20024;-79
2022/01/13 07:40:41;;;;;;;29.40;12.02;;;;;;;4.93;59.58;103689.97;5045520;28;20036;-79
2022/01/13 07:43:07;;;;;;;23.85;11.65;;;;;;;4.98;60.07;103692.75;5042322;28;20409;-79
2022/01/13 07:45:33;;;;;;;23.25;10.90;;;;;;;4.80;60.33;103691.06;5043208;28;20041;-79
2022/01/13 07:47:58;;;;;;;28.10;11.02;;;;;;;4.97;60.43;103694.44;5046890;28;20044;-79
2022/01/13 07:50:24;;;;;;;23.67;11.50;;;;;;;4.76;60.73;103696.88;5044245;28;20513;-79
2022/01/13 07:52:49;;;;;;;27.23;11.32;;;;;;;4.71;60.76;103690.63;5030067;28;20022;-79
2022/01/13 07:55:15;;;;;;;22.48;10.27;;;;;;;5.07;59.55;103688.94;5043113;28;20041;-79
2022/01/13 07:57:42;;;;;;;24.60;11.88;;;;;;;4.71;61.29;103692.31;5044365;28;20048;-79
2022/01/13 08:00:10;;;;;;;27.00;11.55;;;;;;;4.45;61.42;103693.59;5036997;28;20094;-79
2022/01/13 08:02:36;;;;;;;30.15;12.05;;;;;;;4.63;60.68;103688.47;5022161;28;20486;-78
2022/01/13 08:05:02;;;;;;;31.60;12.02;;;;;;;4.57;61.39;103690.75;5045834;28;20033;-79
2022/01/13 08:07:27;;;;;;;27.63;11.40;;;;;;;4.72;60.48;103686.34;5043399;28;20048;-79
2022/01/13 08:09:53;;;;;;;27.83;11.10;;;;;;;4.83;60.31;103688.66;5043541;28;20037;-79
2022/01/13 08:12:18;;;;;;;26.50;11.57;;;;;;;5.11;59.40;103692.56;5046791;28;20037;-79
2022/01/13 08:14:44;;;;;;;29.92;10.52;;;;;;;4.88;59.88;103687.16;5036219;28;20108;-79
2022/01/13 08:17:18;;;;;;;24.80;10.77;;;;;;;4.88;59.58;103697.47;5025655;28;20134;-78
2022/01/13 08:19:47;;;;;;;33.10;12.77;;;;;;;4.75;60.28;103696.81;5039653;28;20041;-79
2022/01/13 08:22:13;;;;;;;37.00;10.85;;;;;;;4.81;60.26;103702.25;5044843;28;20044;-79
2022/01/13 08:24:38;;;;;;;25.17;11.38;;;;;;;4.78;60.49;103703.00;5048784;28;20036;-79
2022/01/13 08:27:05;;;;;;;25.75;11.48;;;;;;;4.66;60.44;103701.50;5030110;28;20052;-79
2022/01/13 08:29:31;;;;;;;28.10;11.30;;;;;;;4.72;61.21;103699.22;5050318;28;20507;-79
2022/01/13 08:31:57;;;;;;;26.85;11.52;;;;;;;4.96;60.53;103704.69;5042557;28;20098;-79
2022/01/13 08:34:22;;;;;;;25.05;11.20;;;;;;;4.78;60.65;103704.69;5029509;28;20390;-79
2022/01/13 08:36:48;;;;;;;27.63;11.88;;;;;;;4.84;60.86;103703.31;5039081;28;20036;-79
2022/01/13 08:39:13;;;;;;;26.98;11.20;;;;;;;4.95;60.22;103697.75;5049549;28;20720;-79
2022/01/13 08:41:40;;;;;;;28.95;10.93;;;;;;;4.99;60.22;103703.16;5043086;28;20021;-79
2022/01/13 08:44:06;;;;;;;26.02;12.32;;;;;;;4.66;60.88;103704.06;5041731;28;20037;-79
2022/01/13 08:46:31;;;;;;;25.25;11.40;;;;;;;4.86;61.20;103703.34;5046871;28;20044;-79
2022/01/13 08:48:57;;;;;;;27.15;11.35;;;;;;;5.00;60.53;103702.31;5045637;28;20121;-79
2022/01/13 08:51:22;;;;;;;30.52;11.70;;;;;;;4.73;60.75;103695.84;5040871;28;20045;-78
2022/01/13 08:53:48;;;;;;;29.42;12.18;;;;;;;4.99;60.39;103698.00;5041894;28;20040;-79
2022/01/13 08:56:14;;;;;;;28.35;11.77;;;;;;;4.91;60.78;103700.19;5044596;28;20354;-79
2022/01/13 08:58:40;;;;;;;28.08;13.15;;;;;;;5.00;59.43;103697.19;5030252;28;20391;-79
2022/01/13 09:01:07;;;;;;;23.75;11.40;;;;;;;4.85;61.01;103699.03;5047161;28;20048;-79
2022/01/13 09:03:33;;;;;;;25.50;12.02;;;;;;;5.02;60.22;103705.00;5045702;28;20036;-79
2022/01/13 09:05:59;;;;;;;24.52;11.88;;;;;;;4.97;61.37;103711.63;5020125;28;20887;-79
2022/01/13 09:08:25;;;;;;;25.88;10.70;;;;;;;4.94;60.30;103704.59;5043933;28;20040;-78
2022/01/13 09:10:51;;;;;;;26.17;11.57;;;;;;;5.07;60.75;103712.13;5044156;28;20078;-78
2022/01/13 09:13:17;;;;;;;31.42;12.70;;;;;;;5.20;59.91;103705.88;5045053;28;20124;-78
2022/01/13 09:15:52;;;;;;;25.88;10.68;;;;;;;4.91;60.75;103705.34;5036693;28;20041;-78
2022/01/13 09:18:30;;;;;;;29.17;11.38;;;;;;;5.01;59.97;103711.84;5042729;28;20090;-78
2022/01/13 09:20:55;;;;;;;27.65;11.07;;;;;;;4.85;60.74;103706.75;5045672;28;20100;-78
2022/01/13 09:23:21;;;;;;;30.00;12.13;;;;;;;4.89;60.68;103703.50;5040286;28;20654;-78
2022/01/13 09:25:46;;;;;;;24.85;11.90;;;;;;;4.95;60.14;103708.06;5055855;28;20040;-78
2022/01/13 09:28:13;;;;;;;21.63;10.95;;;;;;;4.94;60.61;103702.03;5047461;28;20116;-78
2022/01/13 09:30:39;;;;;;;22.88;10.32;;;;;;;5.02;60.82;103712.72;5049707;28;20131;-78
2022/01/13 09:33:06;;;;;;;26.08;11.35;;;;;;;4.90;60.80;103708.75;5042029;28;20041;-79
2022/01/13 09:35:32;;;;;;;22.80;10.32;;;;;;;4.97;60.70;103704.75;5039540;28;20033;-79
2022/01/13 09:37:58;;;;;;;24.08;10.15;;;;;;;5.22;60.39;103706.81;5024411;28;20021;-79
2022/01/13 09:40:25;;;;;;;27.05;10.48;;;;;;;5.09;60.15;103704.50;5039880;28;20079;-79
2022/01/13 09:42:52;;;;;;;24.27;10.10;;;;;;;5.09;60.53;103710.50;5045986;28;20033;-79
2022/01/13 09:45:17;;;;;;;23.60;10.57;;;;;;;5.07;59.98;103719.88;5043654;28;20124;-78
2022/01/13 09:47:44;;;;;;;26.23;11.70;;;;;;;4.62;61.59;103717.59;5043218;28;20063;-78
2022/01/13 09:50:15;;;;;;;26.02;11.82;;;;;;;4.99;60.94;103718.63;5031606;28;20039;-79
2022/01/13 09:52:42;;;;;;;20.40;9.77;;;;;;;4.68;61.39;103720.47;5051010;28;20037;-79
2022/01/13 09:55:09;;;;;;;25.85;11.23;;;;;;;4.97;60.80;103725.38;5049111;28;20506;-79
2022/01/13 09:57:35;;;;;;;27.80;12.30;;;;;;;4.90;59.81;103720.75;5030887;28;20076;-79
2022/01/13 10:00:02;;;;;;;24.08;10.60;;;;;;;5.30;59.37;103718.38;5027434;28;20052;-79
2022/01/13 10:02:31;;;;;;;28.27;11.02;;;;;;;5.29;59.41;103721.78;5030435;28;20116;-79
2022/01/13 10:04:56;;;;;;;21.70;10.23;;;;;;;5.14;59.62;103715.91;5032524;28;20025;-79
2022/01/13 10:07:43;;;;;;;28.77;11.82;;;;;;;5.47;58.07;103710.63;5049397;28;20048;-79
2022/01/13 10:10:15;;;;;;;22.17;9.95;;;;;;;5.33;59.12;103703.94;5048730;28;20045;-79
2022/01/13 10:12:45;;;;;;;21.20;9.43;;;;;;;5.46;59.37;103708.88;5031289;28;20498;-78
2022/01/13 10:18:03;;;;;;;23.70;10.00;;;;;;;5.30;58.92;103710.66;5043141;28;20055;-78
2022/01/13 10:20:29;;;;;;;26.08;9.77;;;;;;;5.48;58.31;103708.94;5047724;28;20072;-78
2022/01/13 10:22:54;;;;;;;24.02;10.85;;;;;;;5.41;58.74;103706.91;5043450;28;20469;-79
2022/01/13 10:25:29;;;;;;;26.20;11.15;;;;;;;5.36;59.20;103711.81;5052004;28;20144;-79
2022/01/13 10:27:55;;;;;;;;;;;;;;;5.29;60.21;103711.47;5029520;28;20422;-79
2022/01/13 10:30:25;;;;;;;28.52;11.32;;;;;;;5.20;60.08;103705.88;5053098;28;19924;-79
2022/01/13 10:32:51;;;;;;;24.85;10.10;;;;;;;5.53;58.84;103704.00;5046926;28;20033;-78
2022/01/13 10:35:20;;;;;;;25.83;11.30;;;;;;;5.47;59.49;103707.19;5032605;28;20520;-79
2022/01/13 10:37:58;;;;;;;23.02;10.32;;;;;;;5.32;60.60;103703.88;5032929;28;21456;-79
2022/01/13 10:40:29;;;;;;;31.08;11.32;;;;;;;5.35;60.14;103707.50;5049480;28;20032;-78
2022/01/13 10:45:37;;;;;;;26.67;10.57;;;;;;;5.58;59.00;103708.56;5031640;28;20029;-78
2022/01/13 10:48:06;;;;;;;26.67;11.10;;;;;;;5.29;60.12;103711.47;5046301;28;20102;-79
2022/01/13 10:50:40;;;;;;;25.38;10.07;;;;;;;5.33;61.28;103711.69;5042223;28;20044;-79
2022/01/13 10:53:09;;;;;;;29.80;11.02;;;;;;;5.53;59.84;103702.31;5047532;28;20622;-79
2022/01/13 10:55:38;;;;;;;27.63;10.90;;;;;;;5.54;59.99;103698.00;5044730;28;20041;-79
2022/01/13 10:58:04;;;;;;;26.15;9.93;;;;;;;5.47;59.79;103692.56;5050595;28;20035;-79
2022/01/13 11:00:33;;;;;;;20.85;9.07;;;;;;;5.52;59.53;103690.22;5046008;28;20033;-79
2022/01/13 11:03:18;;;;;;;23.92;10.05;;;;;;;5.65;59.81;103681.38;5026620;28;20380;-78
2022/01/13 11:05:59;;;;;;;21.67;9.38;;;;;;;5.59;59.40;103681.09;5038932;28;20445;-78
2022/01/13 11:08:32;;;;;;;23.60;9.52;;;;;;;5.54;58.79;103672.22;5028984;28;20090;-78
2022/01/13 11:11:02;;;;;;;23.85;9.40;;;;;;;5.83;58.12;103672.72;5046168;28;20028;-78
2022/01/13 11:13:33;;;;;;;21.33;9.57;;;;;;;5.75;57.92;103671.53;5045981;28;20600;-78
2022/01/13 11:15:58;;;;;;;25.15;9.70;;;;;;;5.59;58.51;103674.25;5051127;28;20048;-79
2022/01/13 11:18:27;;;;;;;19.88;8.85;;;;;;;5.28;58.95;103674.50;5045060;28;20031;-78
2022/01/13 11:20:54;;;;;;;20.48;8.73;;;;;;;5.39;58.78;103675.88;5038724;28;20063;-78
2022/01/13 11:23:20;;;;;;;19.13;8.30;;;;;;;5.63;59.02;103673.53;5040715;28;20052;-78
2022/01/13 11:25:50;;;;;;;20.27;8.50;;;;;;;5.68;59.48;103668.59;5045759;28;20033;-78
2022/01/13 11:28:15;;;;;;;18.08;7.97;;;;;;;5.32;59.46;103665.22;5029523;28;20037;-78
2022/01/13 11:30:42;;;;;;;19.60;8.73;;;;;;;5.69;58.69;103666.09;5036878;28;20370;-78
2022/01/13 11:33:08;;;;;;;22.38;7.85;;;;;;;5.65;57.59;103655.56;5046004;28;20119;-78
2022/01/13 11:35:39;;;;;;;22.55;8.65;;;;;;;5.65;58.31;103658.16;5044886;28;20560;-78
2022/01/13 11:38:06;;;;;;;19.75;9.07;;;;;;;5.85;57.47;103653.06;5043223;28;20040;-78
2022/01/13 11:40:44;;;;;;;17.00;7.90;;;;;;;5.98;57.40;103652.78;5019262;28;21352;-78
2022/01/13 11:43:27;;;;;;;17.17;8.20;;;;;;;5.79;57.94;103649.34;5029062;28;20555;-78
2022/01/13 11:45:53;;;;;;;16.13;6.93;;;;;;;5.92;57.05;103654.22;5040221;28;20041;-79
2022/01/13 11:48:20;;;;;;;18.10;7.57;;;;;;;5.91;58.26;103650.75;5043232;28;20084;-79
2022/01/13 11:50:51;;;;;;;20.08;8.40;;;;;;;5.63;58.88;103650.34;5040436;28;20189;-79